sensor_id;sensor_type;location;lat;lon;timestamp;P1;durP1;ratioP1;P2;durP2;ratioP2
40588;SDS011;26297;49.450;6.640;2023-10-13T00:04:11;6.22;;;2.67;;
40588;SDS011;26297;49.450;6.640;2023-10-13T00:18:54;4.80;;;2.95;;
40588;SDS011;26297;49.450;6.640;2023-10-13T00:26:39;5.32;;;3.28;;
40588;SDS011;26297;49.450;6.640;2023-10-13T00:37:45;3.55;;;3.22;;
40588;SDS011;26297;49.450;6.640;2023-10-13T00:42:00;5.30;;;2.97;;
40588;SDS011;26297;49.450;6.640;2023-10-13T00:49:34;7.00;;;3.13;;
40588;SDS011;26297;49.450;6.640;2023-10-13T01:07:38;3.17;;;2.78;;
40588;SDS011;26297;49.450;6.640;2023-10-13T01:10:41;3.40;;;2.80;;
40588;SDS011;26297;49.450;6.640;2023-10-13T01:13:45;4.40;;;2.92;;
40588;SDS011;26297;49.450;6.640;2023-10-13T01:16:53;3.70;;;2.67;;
40588;SDS011;26297;49.450;6.640;2023-10-13T01:19:57;5.65;;;2.50;;
40588;SDS011;26297;49.450;6.640;2023-10-13T01:23:04;8.43;;;3.80;;
40588;SDS011;26297;49.450;6.640;2023-10-13T01:26:13;4.15;;;2.47;;
40588;SDS011;26297;49.450;6.640;2023-10-13T01:29:20;3.13;;;2.70;;
40588;SDS011;26297;49.450;6.640;2023-10-13T01:32:31;7.18;;;2.97;;
40588;SDS011;26297;49.450;6.640;2023-10-13T01:35:34;3.58;;;2.40;;
40588;SDS011;26297;49.450;6.640;2023-10-13T01:38:50;3.25;;;2.90;;
40588;SDS011;26297;49.450;6.640;2023-10-13T01:41:54;2.80;;;2.60;;
40588;SDS011;26297;49.450;6.640;2023-10-13T01:44:57;2.85;;;2.30;;
40588;SDS011;26297;49.450;6.640;2023-10-13T01:51:11;2.38;;;2.17;;
40588;SDS011;26297;49.450;6.640;2023-10-13T01:54:13;6.82;;;2.22;;
40588;SDS011;26297;49.450;6.640;2023-10-13T01:57:17;3.55;;;2.20;;
40588;SDS011;26297;49.450;6.640;2023-10-13T02:00:20;2.47;;;2.28;;
40588;SDS011;26297;49.450;6.640;2023-10-13T02:03:23;2.35;;;2.15;;
40588;SDS011;26297;49.450;6.640;2023-10-13T02:06:27;2.72;;;2.47;;
40588;SDS011;26297;49.450;6.640;2023-10-13T02:09:35;2.60;;;2.35;;
40588;SDS011;26297;49.450;6.640;2023-10-13T02:12:39;5.38;;;2.10;;
40588;SDS011;26297;49.450;6.640;2023-10-13T02:15:46;2.05;;;1.92;;
40588;SDS011;26297;49.450;6.640;2023-10-13T02:18:51;3.33;;;2.45;;
40588;SDS011;26297;49.450;6.640;2023-10-13T02:21:54;4.45;;;2.80;;
40588;SDS011;26297;49.450;6.640;2023-10-13T02:25:01;3.60;;;3.05;;
40588;SDS011;26297;49.450;6.640;2023-10-13T02:28:09;6.35;;;3.15;;
40588;SDS011;26297;49.450;6.640;2023-10-13T02:31:15;4.78;;;2.63;;
40588;SDS011;26297;49.450;6.640;2023-10-13T02:34:20;4.50;;;2.70;;
40588;SDS011;26297;49.450;6.640;2023-10-13T02:37:25;5.15;;;2.72;;
40588;SDS011;26297;49.450;6.640;2023-10-13T02:40:34;3.45;;;2.88;;
40588;SDS011;26297;49.450;6.640;2023-10-13T02:43:38;5.00;;;3.08;;
40588;SDS011;26297;49.450;6.640;2023-10-13T02:46:41;2.85;;;2.55;;
40588;SDS011;26297;49.450;6.640;2023-10-13T02:49:43;5.90;;;3.15;;
40588;SDS011;26297;49.450;6.640;2023-10-13T02:52:49;3.20;;;2.90;;
40588;SDS011;26297;49.450;6.640;2023-10-13T02:55:55;4.35;;;3.25;;
40588;SDS011;26297;49.450;6.640;2023-10-13T02:59:01;3.70;;;3.35;;
40588;SDS011;26297;49.450;6.640;2023-10-13T03:02:08;5.28;;;2.97;;
40588;SDS011;26297;49.450;6.640;2023-10-13T03:05:20;3.47;;;3.10;;
40588;SDS011;26297;49.450;6.640;2023-10-13T03:08:25;4.47;;;2.70;;
40588;SDS011;26297;49.450;6.640;2023-10-13T03:11:30;6.70;;;2.97;;
40588;SDS011;26297;49.450;6.640;2023-10-13T03:14:35;6.38;;;3.00;;
40588;SDS011;26297;49.450;6.640;2023-10-13T03:17:38;6.40;;;2.92;;
40588;SDS011;26297;49.450;6.640;2023-10-13T03:20:46;6.50;;;2.90;;
40588;SDS011;26297;49.450;6.640;2023-10-13T03:23:54;3.85;;;3.38;;
40588;SDS011;26297;49.450;6.640;2023-10-13T03:26:57;5.05;;;3.03;;
40588;SDS011;26297;49.450;6.640;2023-10-13T03:30:02;4.88;;;2.95;;
40588;SDS011;26297;49.450;6.640;2023-10-13T03:33:12;4.20;;;2.65;;
40588;SDS011;26297;49.450;6.640;2023-10-13T03:36:16;5.03;;;2.97;;
40588;SDS011;26297;49.450;6.640;2023-10-13T03:39:40;5.40;;;2.90;;
40588;SDS011;26297;49.450;6.640;2023-10-13T03:46:06;9.25;;;3.33;;
40588;SDS011;26297;49.450;6.640;2023-10-13T03:49:12;3.42;;;2.60;;
40588;SDS011;26297;49.450;6.640;2023-10-13T03:52:16;7.22;;;2.83;;
40588;SDS011;26297;49.450;6.640;2023-10-13T03:55:24;4.30;;;2.75;;
40588;SDS011;26297;49.450;6.640;2023-10-13T03:58:31;4.30;;;2.58;;
40588;SDS011;26297;49.450;6.640;2023-10-13T04:01:37;3.38;;;3.08;;
40588;SDS011;26297;49.450;6.640;2023-10-13T04:04:46;2.85;;;2.58;;
40588;SDS011;26297;49.450;6.640;2023-10-13T04:08:01;5.97;;;3.17;;
40588;SDS011;26297;49.450;6.640;2023-10-13T04:11:40;4.72;;;2.85;;
40588;SDS011;26297;49.450;6.640;2023-10-13T04:15:11;7.60;;;2.78;;
40588;SDS011;26297;49.450;6.640;2023-10-13T04:18:20;3.83;;;3.40;;
40588;SDS011;26297;49.450;6.640;2023-10-13T04:21:42;4.38;;;3.15;;
40588;SDS011;26297;49.450;6.640;2023-10-13T04:24:57;5.50;;;3.13;;
40588;SDS011;26297;49.450;6.640;2023-10-13T04:28:09;7.97;;;3.53;;
40588;SDS011;26297;49.450;6.640;2023-10-13T04:31:16;7.40;;;3.45;;
40588;SDS011;26297;49.450;6.640;2023-10-13T04:34:39;6.03;;;2.97;;
40588;SDS011;26297;49.450;6.640;2023-10-13T04:37:48;5.30;;;2.65;;
40588;SDS011;26297;49.450;6.640;2023-10-13T04:41:03;4.07;;;2.92;;
40588;SDS011;26297;49.450;6.640;2023-10-13T04:44:17;2.80;;;2.50;;
40588;SDS011;26297;49.450;6.640;2023-10-13T04:47:55;2.95;;;2.70;;
40588;SDS011;26297;49.450;6.640;2023-10-13T04:51:20;2.70;;;2.28;;
40588;SDS011;26297;49.450;6.640;2023-10-13T04:54:51;2.95;;;2.47;;
40588;SDS011;26297;49.450;6.640;2023-10-13T04:57:49;3.10;;;2.90;;
40588;SDS011;26297;49.450;6.640;2023-10-13T05:01:03;3.72;;;2.88;;
40588;SDS011;26297;49.450;6.640;2023-10-13T05:04:25;4.65;;;2.70;;
40588;SDS011;26297;49.450;6.640;2023-10-13T05:08:03;2.45;;;2.20;;
40588;SDS011;26297;49.450;6.640;2023-10-13T05:11:25;5.82;;;3.08;;
40588;SDS011;26297;49.450;6.640;2023-10-13T05:14:47;5.25;;;3.38;;
40588;SDS011;26297;49.450;6.640;2023-10-13T05:18:09;4.72;;;2.28;;
40588;SDS011;26297;49.450;6.640;2023-10-13T05:21:31;3.05;;;1.77;;
40588;SDS011;26297;49.450;6.640;2023-10-13T05:24:54;5.20;;;2.38;;
40588;SDS011;26297;49.450;6.640;2023-10-13T05:28:15;3.65;;;1.95;;
40588;SDS011;26297;49.450;6.640;2023-10-13T05:31:37;4.55;;;2.03;;
40588;SDS011;26297;49.450;6.640;2023-10-13T05:34:59;3.70;;;2.20;;
40588;SDS011;26297;49.450;6.640;2023-10-13T05:38:25;3.22;;;2.00;;
40588;SDS011;26297;49.450;6.640;2023-10-13T05:41:47;2.30;;;2.05;;
40588;SDS011;26297;49.450;6.640;2023-10-13T05:45:09;3.13;;;2.15;;
40588;SDS011;26297;49.450;6.640;2023-10-13T05:48:21;9.70;;;3.28;;
40588;SDS011;26297;49.450;6.640;2023-10-13T05:51:43;5.35;;;4.18;;
40588;SDS011;26297;49.450;6.640;2023-10-13T05:55:00;6.65;;;3.90;;
40588;SDS011;26297;49.450;6.640;2023-10-13T05:58:24;5.35;;;3.30;;
40588;SDS011;26297;49.450;6.640;2023-10-13T06:01:56;8.10;;;5.68;;
40588;SDS011;26297;49.450;6.640;2023-10-13T06:13:43;4.57;;;2.88;;
40588;SDS011;26297;49.450;6.640;2023-10-13T06:17:45;7.40;;;4.30;;
40588;SDS011;26297;49.450;6.640;2023-10-13T06:21:21;6.47;;;4.07;;
40588;SDS011;26297;49.450;6.640;2023-10-13T06:32:44;7.43;;;3.72;;
40588;SDS011;26297;49.450;6.640;2023-10-13T06:36:37;5.38;;;3.60;;
40588;SDS011;26297;49.450;6.640;2023-10-13T06:40:01;4.68;;;3.30;;
40588;SDS011;26297;49.450;6.640;2023-10-13T06:43:59;6.15;;;3.60;;
40588;SDS011;26297;49.450;6.640;2023-10-13T06:51:50;4.10;;;2.72;;
40588;SDS011;26297;49.450;6.640;2023-10-13T06:54:56;4.00;;;3.08;;
40588;SDS011;26297;49.450;6.640;2023-10-13T07:02:10;3.03;;;2.65;;
40588;SDS011;26297;49.450;6.640;2023-10-13T07:05:49;4.88;;;2.97;;
40588;SDS011;26297;49.450;6.640;2023-10-13T07:08:56;2.70;;;2.50;;
40588;SDS011;26297;49.450;6.640;2023-10-13T07:12:41;4.22;;;3.17;;
40588;SDS011;26297;49.450;6.640;2023-10-13T07:20:04;3.47;;;3.17;;
40588;SDS011;26297;49.450;6.640;2023-10-13T07:24:02;4.75;;;3.17;;
40588;SDS011;26297;49.450;6.640;2023-10-13T07:27:20;3.72;;;3.15;;
40588;SDS011;26297;49.450;6.640;2023-10-13T07:30:27;7.38;;;3.33;;
40588;SDS011;26297;49.450;6.640;2023-10-13T07:33:30;7.10;;;4.03;;
40588;SDS011;26297;49.450;6.640;2023-10-13T07:36:36;7.70;;;3.38;;
40588;SDS011;26297;49.450;6.640;2023-10-13T07:40:05;3.75;;;3.45;;
40588;SDS011;26297;49.450;6.640;2023-10-13T07:43:42;8.68;;;3.17;;
40588;SDS011;26297;49.450;6.640;2023-10-13T07:46:47;6.20;;;4.00;;
40588;SDS011;26297;49.450;6.640;2023-10-13T07:49:58;5.57;;;3.28;;
40588;SDS011;26297;49.450;6.640;2023-10-13T07:53:02;6.93;;;3.97;;
40588;SDS011;26297;49.450;6.640;2023-10-13T07:59:48;5.82;;;3.85;;
40588;SDS011;26297;49.450;6.640;2023-10-13T08:03:01;5.65;;;3.72;;
40588;SDS011;26297;49.450;6.640;2023-10-13T08:06:52;6.85;;;3.30;;
40588;SDS011;26297;49.450;6.640;2023-10-13T08:10:07;8.48;;;3.65;;
40588;SDS011;26297;49.450;6.640;2023-10-13T08:13:12;5.53;;;3.92;;
40588;SDS011;26297;49.450;6.640;2023-10-13T08:16:23;5.25;;;3.33;;
40588;SDS011;26297;49.450;6.640;2023-10-13T08:19:50;9.13;;;3.72;;
40588;SDS011;26297;49.450;6.640;2023-10-13T08:23:00;11.80;;;4.05;;
40588;SDS011;26297;49.450;6.640;2023-10-13T08:26:38;7.38;;;4.80;;
40588;SDS011;26297;49.450;6.640;2023-10-13T08:30:20;8.77;;;3.92;;
40588;SDS011;26297;49.450;6.640;2023-10-13T08:33:52;9.63;;;4.13;;
40588;SDS011;26297;49.450;6.640;2023-10-13T08:37:26;7.18;;;5.20;;
40588;SDS011;26297;49.450;6.640;2023-10-13T09:06:20;8.50;;;4.90;;
40588;SDS011;26297;49.450;6.640;2023-10-13T09:22:32;9.40;;;4.60;;
40588;SDS011;26297;49.450;6.640;2023-10-13T09:26:33;9.38;;;4.93;;
40588;SDS011;26297;49.450;6.640;2023-10-13T09:34:18;6.00;;;4.32;;
40588;SDS011;26297;49.450;6.640;2023-10-13T09:59:14;5.32;;;4.40;;
40588;SDS011;26297;49.450;6.640;2023-10-13T10:02:35;6.05;;;4.38;;
40588;SDS011;26297;49.450;6.640;2023-10-13T10:06:10;6.35;;;4.28;;
40588;SDS011;26297;49.450;6.640;2023-10-13T10:17:16;4.85;;;3.80;;
40588;SDS011;26297;49.450;6.640;2023-10-13T10:20:42;6.60;;;4.80;;
40588;SDS011;26297;49.450;6.640;2023-10-13T10:32:43;5.75;;;4.38;;
40588;SDS011;26297;49.450;6.640;2023-10-13T10:44:31;10.02;;;5.05;;
40588;SDS011;26297;49.450;6.640;2023-10-13T10:48:17;8.20;;;4.28;;
40588;SDS011;26297;49.450;6.640;2023-10-13T11:04:07;4.53;;;3.85;;
40588;SDS011;26297;49.450;6.640;2023-10-13T11:07:20;5.43;;;3.50;;
40588;SDS011;26297;49.450;6.640;2023-10-13T11:10:26;6.75;;;4.68;;
40588;SDS011;26297;49.450;6.640;2023-10-13T11:13:39;6.00;;;4.30;;
40588;SDS011;26297;49.450;6.640;2023-10-13T11:16:51;6.70;;;4.28;;
40588;SDS011;26297;49.450;6.640;2023-10-13T11:19:57;4.93;;;4.43;;
40588;SDS011;26297;49.450;6.640;2023-10-13T11:23:35;6.53;;;4.60;;
40588;SDS011;26297;49.450;6.640;2023-10-13T11:26:38;4.63;;;3.78;;
40588;SDS011;26297;49.450;6.640;2023-10-13T11:29:54;5.75;;;4.05;;
40588;SDS011;26297;49.450;6.640;2023-10-13T11:36:52;8.95;;;4.50;;
40588;SDS011;26297;49.450;6.640;2023-10-13T11:40:34;5.30;;;3.65;;
40588;SDS011;26297;49.450;6.640;2023-10-13T11:48:05;6.30;;;4.20;;
40588;SDS011;26297;49.450;6.640;2023-10-13T11:51:17;6.43;;;4.65;;
40588;SDS011;26297;49.450;6.640;2023-10-13T11:54:32;6.65;;;4.82;;
40588;SDS011;26297;49.450;6.640;2023-10-13T11:57:53;14.63;;;5.43;;
40588;SDS011;26297;49.450;6.640;2023-10-13T12:01:37;6.65;;;4.47;;
40588;SDS011;26297;49.450;6.640;2023-10-13T12:05:02;10.15;;;5.10;;
40588;SDS011;26297;49.450;6.640;2023-10-13T12:08:17;8.32;;;5.40;;
40588;SDS011;26297;49.450;6.640;2023-10-13T12:11:26;7.80;;;5.25;;
40588;SDS011;26297;49.450;6.640;2023-10-13T12:14:35;7.13;;;5.13;;
40588;SDS011;26297;49.450;6.640;2023-10-13T12:17:54;8.02;;;5.35;;
40588;SDS011;26297;49.450;6.640;2023-10-13T12:21:08;9.52;;;5.28;;
40588;SDS011;26297;49.450;6.640;2023-10-13T12:24:16;7.22;;;4.75;;
40588;SDS011;26297;49.450;6.640;2023-10-13T12:28:21;5.05;;;4.43;;
40588;SDS011;26297;49.450;6.640;2023-10-13T13:41:53;5.25;;;4.15;;
40588;SDS011;26297;49.450;6.640;2023-10-13T13:45:24;8.50;;;4.35;;
40588;SDS011;26297;49.450;6.640;2023-10-13T13:48:59;6.93;;;4.63;;
40588;SDS011;26297;49.450;6.640;2023-10-13T13:52:14;5.45;;;4.55;;
40588;SDS011;26297;49.450;6.640;2023-10-13T14:07:23;6.00;;;5.18;;
40588;SDS011;26297;49.450;6.640;2023-10-13T14:14:33;6.57;;;3.95;;
40588;SDS011;26297;49.450;6.640;2023-10-13T14:17:50;7.95;;;4.65;;
40588;SDS011;26297;49.450;6.640;2023-10-13T14:20:53;7.55;;;4.60;;
40588;SDS011;26297;49.450;6.640;2023-10-13T14:24:12;8.68;;;4.43;;
40588;SDS011;26297;49.450;6.640;2023-10-13T14:31:14;10.18;;;6.47;;
40588;SDS011;26297;49.450;6.640;2023-10-13T14:34:47;10.35;;;5.28;;
40588;SDS011;26297;49.450;6.640;2023-10-13T14:38:07;5.53;;;4.45;;
40588;SDS011;26297;49.450;6.640;2023-10-13T14:41:29;7.57;;;5.10;;
40588;SDS011;26297;49.450;6.640;2023-10-13T14:44:44;8.63;;;5.53;;
40588;SDS011;26297;49.450;6.640;2023-10-13T14:47:57;9.13;;;4.60;;
40588;SDS011;26297;49.450;6.640;2023-10-13T14:51:00;5.55;;;3.63;;
40588;SDS011;26297;49.450;6.640;2023-10-13T14:57:13;6.43;;;4.20;;
40588;SDS011;26297;49.450;6.640;2023-10-13T15:00:16;8.25;;;3.30;;
40588;SDS011;26297;49.450;6.640;2023-10-13T15:03:29;7.05;;;5.05;;
40588;SDS011;26297;49.450;6.640;2023-10-13T15:06:34;4.90;;;4.40;;
40588;SDS011;26297;49.450;6.640;2023-10-13T15:09:37;6.97;;;4.47;;
40588;SDS011;26297;49.450;6.640;2023-10-13T15:12:45;5.60;;;4.35;;
40588;SDS011;26297;49.450;6.640;2023-10-13T15:15:48;5.55;;;4.10;;
40588;SDS011;26297;49.450;6.640;2023-10-13T15:47:06;7.85;;;3.70;;
40588;SDS011;26297;49.450;6.640;2023-10-13T15:50:14;5.65;;;3.97;;
40588;SDS011;26297;49.450;6.640;2023-10-13T15:53:21;5.75;;;3.92;;
40588;SDS011;26297;49.450;6.640;2023-10-13T15:56:32;7.57;;;3.47;;
40588;SDS011;26297;49.450;6.640;2023-10-13T15:59:41;4.18;;;3.00;;
40588;SDS011;26297;49.450;6.640;2023-10-13T16:02:58;6.85;;;3.88;;
40588;SDS011;26297;49.450;6.640;2023-10-13T16:06:04;5.57;;;3.22;;
40588;SDS011;26297;49.450;6.640;2023-10-13T16:09:19;4.18;;;3.72;;
40588;SDS011;26297;49.450;6.640;2023-10-13T16:12:26;7.75;;;3.42;;
40588;SDS011;26297;49.450;6.640;2023-10-13T16:15:31;6.43;;;3.70;;
40588;SDS011;26297;49.450;6.640;2023-10-13T16:18:45;3.72;;;3.30;;
40588;SDS011;26297;49.450;6.640;2023-10-13T16:21:53;5.35;;;3.35;;
40588;SDS011;26297;49.450;6.640;2023-10-13T16:24:56;4.93;;;3.10;;
40588;SDS011;26297;49.450;6.640;2023-10-13T16:28:03;6.07;;;3.10;;
40588;SDS011;26297;49.450;6.640;2023-10-13T16:31:07;4.38;;;2.92;;
40588;SDS011;26297;49.450;6.640;2023-10-13T16:34:14;2.42;;;2.10;;
40588;SDS011;26297;49.450;6.640;2023-10-13T16:37:18;4.93;;;2.65;;
40588;SDS011;26297;49.450;6.640;2023-10-13T16:40:21;5.25;;;3.13;;
40588;SDS011;26297;49.450;6.640;2023-10-13T16:43:29;4.95;;;3.20;;
40588;SDS011;26297;49.450;6.640;2023-10-13T16:46:36;10.10;;;3.15;;
40588;SDS011;26297;49.450;6.640;2023-10-13T16:49:39;5.40;;;2.92;;
40588;SDS011;26297;49.450;6.640;2023-10-13T16:52:46;7.00;;;3.67;;
40588;SDS011;26297;49.450;6.640;2023-10-13T16:55:49;3.45;;;2.67;;
40588;SDS011;26297;49.450;6.640;2023-10-13T16:58:51;4.15;;;3.08;;
40588;SDS011;26297;49.450;6.640;2023-10-13T17:01:56;4.90;;;2.85;;
40588;SDS011;26297;49.450;6.640;2023-10-13T17:05:00;4.93;;;2.50;;
40588;SDS011;26297;49.450;6.640;2023-10-13T17:08:05;5.75;;;3.03;;
40588;SDS011;26297;49.450;6.640;2023-10-13T17:11:10;5.45;;;2.60;;
40588;SDS011;26297;49.450;6.640;2023-10-13T17:14:17;11.43;;;2.80;;
40588;SDS011;26297;49.450;6.640;2023-10-13T17:17:22;6.55;;;3.13;;
40588;SDS011;26297;49.450;6.640;2023-10-13T17:20:26;7.75;;;2.80;;
40588;SDS011;26297;49.450;6.640;2023-10-13T17:23:30;3.97;;;2.83;;
40588;SDS011;26297;49.450;6.640;2023-10-13T17:30:50;3.13;;;2.75;;
40588;SDS011;26297;49.450;6.640;2023-10-13T17:33:55;10.40;;;2.80;;
40588;SDS011;26297;49.450;6.640;2023-10-13T17:37:01;4.25;;;2.55;;
40588;SDS011;26297;49.450;6.640;2023-10-13T17:40:04;5.10;;;2.88;;
40588;SDS011;26297;49.450;6.640;2023-10-13T17:43:10;2.58;;;2.30;;
40588;SDS011;26297;49.450;6.640;2023-10-13T17:46:17;4.70;;;2.65;;
40588;SDS011;26297;49.450;6.640;2023-10-13T17:49:27;4.53;;;2.40;;
40588;SDS011;26297;49.450;6.640;2023-10-13T17:52:30;6.47;;;3.20;;
40588;SDS011;26297;49.450;6.640;2023-10-13T17:55:36;6.30;;;3.10;;
40588;SDS011;26297;49.450;6.640;2023-10-13T17:58:42;4.07;;;3.00;;
40588;SDS011;26297;49.450;6.640;2023-10-13T18:01:45;2.95;;;2.65;;
40588;SDS011;26297;49.450;6.640;2023-10-13T18:04:51;3.55;;;2.65;;
40588;SDS011;26297;49.450;6.640;2023-10-13T18:07:54;4.75;;;3.08;;
40588;SDS011;26297;49.450;6.640;2023-10-13T18:10:58;5.03;;;3.17;;
40588;SDS011;26297;49.450;6.640;2023-10-13T18:14:01;6.22;;;3.00;;
40588;SDS011;26297;49.450;6.640;2023-10-13T18:17:06;4.03;;;2.60;;
40588;SDS011;26297;49.450;6.640;2023-10-13T18:20:11;5.65;;;2.80;;
40588;SDS011;26297;49.450;6.640;2023-10-13T18:23:17;6.53;;;3.10;;
40588;SDS011;26297;49.450;6.640;2023-10-13T18:26:20;4.47;;;3.20;;
40588;SDS011;26297;49.450;6.640;2023-10-13T18:29:24;6.13;;;3.15;;
40588;SDS011;26297;49.450;6.640;2023-10-13T18:32:27;7.05;;;3.17;;
40588;SDS011;26297;49.450;6.640;2023-10-13T18:35:30;5.05;;;2.83;;
40588;SDS011;26297;49.450;6.640;2023-10-13T18:38:34;3.63;;;3.33;;
40588;SDS011;26297;49.450;6.640;2023-10-13T18:41:37;4.35;;;3.60;;
40588;SDS011;26297;49.450;6.640;2023-10-13T18:44:40;4.07;;;2.92;;
40588;SDS011;26297;49.450;6.640;2023-10-13T18:47:44;4.05;;;3.05;;
40588;SDS011;26297;49.450;6.640;2023-10-13T18:50:50;3.05;;;2.67;;
40588;SDS011;26297;49.450;6.640;2023-10-13T18:57:59;6.05;;;3.33;;
40588;SDS011;26297;49.450;6.640;2023-10-13T19:07:59;5.05;;;3.38;;
40588;SDS011;26297;49.450;6.640;2023-10-13T19:15:05;6.07;;;3.63;;
40588;SDS011;26297;49.450;6.640;2023-10-13T19:18:09;6.35;;;3.63;;
40588;SDS011;26297;49.450;6.640;2023-10-13T19:21:16;4.07;;;3.35;;
40588;SDS011;26297;49.450;6.640;2023-10-13T19:24:23;7.20;;;3.15;;
40588;SDS011;26297;49.450;6.640;2023-10-13T19:27:25;3.78;;;3.15;;
40588;SDS011;26297;49.450;6.640;2023-10-13T19:30:37;7.18;;;3.50;;
40588;SDS011;26297;49.450;6.640;2023-10-13T19:33:55;5.22;;;3.38;;
40588;SDS011;26297;49.450;6.640;2023-10-13T19:37:08;7.38;;;3.50;;
40588;SDS011;26297;49.450;6.640;2023-10-13T19:40:12;3.78;;;3.00;;
40588;SDS011;26297;49.450;6.640;2023-10-13T19:43:15;7.45;;;3.50;;
40588;SDS011;26297;49.450;6.640;2023-10-13T19:46:23;5.78;;;3.47;;
40588;SDS011;26297;49.450;6.640;2023-10-13T19:49:30;4.00;;;3.28;;
40588;SDS011;26297;49.450;6.640;2023-10-13T19:52:36;7.80;;;3.13;;
40588;SDS011;26297;49.450;6.640;2023-10-13T19:55:42;7.65;;;3.35;;
40588;SDS011;26297;49.450;6.640;2023-10-13T20:38:58;4.95;;;3.58;;
40588;SDS011;26297;49.450;6.640;2023-10-13T20:59:12;6.47;;;3.75;;
40588;SDS011;26297;49.450;6.640;2023-10-13T21:03:05;7.38;;;4.00;;
40588;SDS011;26297;49.450;6.640;2023-10-13T21:06:28;4.53;;;3.13;;
40588;SDS011;26297;49.450;6.640;2023-10-13T21:10:07;6.25;;;3.33;;
40588;SDS011;26297;49.450;6.640;2023-10-13T21:13:24;5.82;;;3.55;;
40588;SDS011;26297;49.450;6.640;2023-10-13T21:24:47;8.88;;;3.08;;
40588;SDS011;26297;49.450;6.640;2023-10-13T21:27:59;5.40;;;3.15;;
40588;SDS011;26297;49.450;6.640;2023-10-13T21:31:28;5.18;;;3.00;;
40588;SDS011;26297;49.450;6.640;2023-10-13T21:34:47;4.00;;;3.25;;
40588;SDS011;26297;49.450;6.640;2023-10-13T21:37:55;7.05;;;3.47;;
40588;SDS011;26297;49.450;6.640;2023-10-13T21:41:22;9.60;;;3.55;;
40588;SDS011;26297;49.450;6.640;2023-10-13T21:48:48;4.78;;;3.42;;
40588;SDS011;26297;49.450;6.640;2023-10-13T21:51:55;5.20;;;3.42;;
40588;SDS011;26297;49.450;6.640;2023-10-13T22:57:01;5.90;;;3.33;;
40588;SDS011;26297;49.450;6.640;2023-10-13T23:00:04;8.70;;;3.70;;
40588;SDS011;26297;49.450;6.640;2023-10-13T23:03:58;10.63;;;3.55;;
40588;SDS011;26297;49.450;6.640;2023-10-13T23:14:00;7.45;;;3.45;;
40588;SDS011;26297;49.450;6.640;2023-10-13T23:17:36;11.95;;;3.60;;
40588;SDS011;26297;49.450;6.640;2023-10-13T23:20:58;7.32;;;3.55;;
40588;SDS011;26297;49.450;6.640;2023-10-13T23:27:20;14.05;;;3.45;;
40588;SDS011;26297;49.450;6.640;2023-10-13T23:30:26;10.18;;;4.07;;
40588;SDS011;26297;49.450;6.640;2023-10-13T23:33:45;7.43;;;4.05;;
40588;SDS011;26297;49.450;6.640;2023-10-13T23:37:32;10.05;;;3.15;;
40588;SDS011;26297;49.450;6.640;2023-10-13T23:40:47;9.02;;;3.70;;
40588;SDS011;26297;49.450;6.640;2023-10-13T23:44:21;6.78;;;3.65;;
40588;SDS011;26297;49.450;6.640;2023-10-13T23:47:39;8.20;;;3.72;;
40588;SDS011;26297;49.450;6.640;2023-10-13T23:50:53;11.95;;;3.90;;
40588;SDS011;26297;49.450;6.640;2023-10-13T23:57:39;4.85;;;3.50;;
